Time;durP1;ratioP1;P1;durP2;ratioP2;P2;SDS_P1;SDS_P2;PMS_P1;PMS_P2;Temp;Humidity;BMP_temperature;BMP_pressure;BME280_temperature;BME280_humidity;BME280_pressure;Samples;Min_cycle;Max_cycle;Signal;HPM_P1;HPM_P2
2023/07/04 00:01:31;;;;;;;12.63;5.90;;;18.10;99.90;;;;;;4979754;28;20666;-80
2023/07/04 00:03:57;;;;;;;10.35;5.70;;;18.10;99.90;;;;;;4979635;28;20027;-79
2023/07/04 00:06:25;;;;;;;10.18;6.15;;;18.10;99.90;;;;;;4979575;28;20031;-80
2023/07/04 00:08:52;;;;;;;10.73;6.30;;;18.10;99.90;;;;;;4979688;28;20084;-80
2023/07/04 00:11:19;;;;;;;12.63;6.60;;;18.10;99.90;;;;;;4979289;28;20029;-80
2023/07/04 00:13:44;;;;;;;11.93;6.25;;;18.10;99.90;;;;;;4979624;28;20026;-78
2023/07/04 00:16:13;;;;;;;8.93;5.78;;;18.10;99.90;;;;;;4980534;28;20093;-80
2023/07/04 00:18:39;;;;;;;12.35;5.82;;;18.10;99.90;;;;;;4980408;28;20075;-79
2023/07/04 00:21:11;;;;;;;12.43;6.15;;;18.10;99.90;;;;;;4979468;28;20085;-80
2023/07/04 00:23:37;;;;;;;8.52;5.53;;;18.10;99.90;;;;;;4978549;28;20826;-80
2023/07/04 00:26:06;;;;;;;10.05;5.82;;;18.10;99.90;;;;;;4979384;28;20030;-80
2023/07/04 00:28:33;;;;;;;10.07;5.15;;;18.10;99.90;;;;;;4977861;28;20049;-80
2023/07/04 00:31:02;;;;;;;8.73;5.13;;;18.10;99.90;;;;;;4978603;28;20092;-79
2023/07/04 00:33:28;;;;;;;10.75;5.65;;;18.00;99.90;;;;;;4979408;28;20057;-80
2023/07/04 00:36:03;;;;;;;10.50;5.38;;;18.00;99.90;;;;;;4978381;28;20038;-80
2023/07/04 00:38:32;;;;;;;11.20;5.72;;;18.00;99.90;;;;;;4979318;28;20050;-79
2023/07/04 00:41:02;;;;;;;10.43;5.93;;;18.00;99.90;;;;;;4978671;28;20836;-80
2023/07/04 00:44:10;;;;;;;11.88;5.60;;;17.90;99.90;;;;;;4977975;28;20070;-79
2023/07/04 00:46:52;;;;;;;9.65;5.20;;;17.90;99.90;;;;;;4978857;28;20054;-80
2023/07/04 00:49:22;;;;;;;11.85;5.80;;;18.00;99.90;;;;;;4980749;28;20033;-80
2023/07/04 00:51:54;;;;;;;8.75;5.18;;;17.90;99.90;;;;;;4978043;28;20077;-79
2023/07/04 00:54:24;;;;;;;10.32;5.25;;;18.00;99.90;;;;;;4978924;28;20508;-79
2023/07/04 00:56:54;;;;;;;9.48;5.20;;;17.90;99.90;;;;;;4978748;28;20031;-80
2023/07/04 00:59:20;;;;;;;11.60;5.28;;;17.90;99.90;;;;;;4978492;28;20047;-80
2023/07/04 01:01:46;;;;;;;10.43;4.80;;;17.90;99.90;;;;;;4979001;28;20566;-79
2023/07/04 01:04:12;;;;;;;11.13;5.35;;;17.90;99.90;;;;;;4978313;28;20030;-80
2023/07/04 01:06:58;;;;;;;9.93;4.90;;;17.90;99.90;;;;;;4976736;28;20049;-80
2023/07/04 01:09:24;;;;;;;11.30;4.82;;;17.90;99.90;;;;;;4979160;28;20137;-79
2023/07/04 01:11:50;;;;;;;11.20;4.70;;;17.90;99.90;;;;;;4978782;28;20131;-79
2023/07/04 01:14:22;;;;;;;9.52;5.03;;;17.90;99.90;;;;;;4979170;28;20157;-79
2023/07/04 01:16:48;;;;;;;7.38;4.40;;;17.90;99.90;;;;;;4976765;28;20045;-79
2023/07/04 01:19:20;;;;;;;8.48;4.78;;;17.90;99.90;;;;;;4977589;28;20495;-80
2023/07/04 01:21:50;;;;;;;11.48;5.03;;;17.90;99.90;;;;;;4978710;28;20034;-79
2023/07/04 01:24:45;;;;;;;8.48;4.50;;;17.90;99.90;;;;;;4977904;28;20034;-80
2023/07/04 01:27:14;;;;;;;9.55;4.25;;;17.90;99.90;;;;;;4965905;28;20124;-80
2023/07/04 01:29:40;;;;;;;10.90;5.05;;;17.90;99.90;;;;;;4977748;28;20506;-80
2023/07/04 01:32:08;;;;;;;8.70;4.10;;;17.90;99.90;;;;;;4980394;28;20030;-79
2023/07/04 01:34:33;;;;;;;6.85;4.05;;;17.90;99.90;;;;;;4980623;28;20097;-79
2023/07/04 01:37:01;;;;;;;10.73;4.28;;;18.00;99.90;;;;;;4981507;28;20031;-80
2023/07/04 01:39:26;;;;;;;8.57;4.63;;;18.00;99.90;;;;;;4980994;28;20042;-79
2023/07/04 01:41:52;;;;;;;8.57;4.50;;;18.00;99.90;;;;;;4980503;28;20041;-79
2023/07/04 01:44:17;;;;;;;13.10;4.75;;;17.90;99.90;;;;;;4978313;28;20070;-80
2023/07/04 01:46:43;;;;;;;8.82;4.75;;;17.90;99.90;;;;;;4980105;28;20042;-80
2023/07/04 01:49:09;;;;;;;8.07;4.47;;;17.90;99.90;;;;;;4979165;28;20045;-79
2023/07/04 01:51:38;;;;;;;8.85;4.57;;;17.90;99.90;;;;;;4980053;28;20019;-79
2023/07/04 01:54:06;;;;;;;7.70;4.55;;;17.90;99.90;;;;;;4979347;28;20517;-79
2023/07/04 01:56:33;;;;;;;8.43;4.20;;;17.90;99.90;;;;;;4978164;28;20027;-80
2023/07/04 01:58:58;;;;;;;8.75;4.60;;;17.90;99.90;;;;;;4978226;28;20156;-79
2023/07/04 02:01:24;;;;;;;10.52;4.60;;;17.90;99.90;;;;;;4979404;28;21415;-79
2023/07/04 02:03:51;;;;;;;12.43;4.40;;;17.80;99.90;;;;;;4980029;28;20065;-79
2023/07/04 02:06:16;;;;;;;9.60;4.32;;;17.80;99.90;;;;;;4980588;28;20085;-79
2023/07/04 02:08:42;;;;;;;7.78;4.15;;;17.70;99.90;;;;;;4980093;28;20049;-79
2023/07/04 02:11:08;;;;;;;9.68;4.43;;;17.70;99.90;;;;;;4980246;28;20103;-80
2023/07/04 02:13:33;;;;;;;9.52;4.72;;;17.70;99.90;;;;;;4979894;28;21258;-79
2023/07/04 02:15:59;;;;;;;9.52;4.65;;;17.70;99.90;;;;;;4981144;28;20042;-80
2023/07/04 02:18:25;;;;;;;10.77;4.43;;;17.70;99.90;;;;;;4980358;28;20436;-79
2023/07/04 02:20:51;;;;;;;10.48;4.15;;;17.50;99.90;;;;;;4980635;28;20035;-78
2023/07/04 02:23:16;;;;;;;11.30;5.07;;;17.50;99.90;;;;;;4979228;28;20045;-79
2023/07/04 02:25:42;;;;;;;10.02;4.50;;;17.40;99.90;;;;;;4980423;28;20027;-79
2023/07/04 02:28:09;;;;;;;11.75;4.20;;;17.30;99.90;;;;;;4980218;28;20034;-79
2023/07/04 02:30:35;;;;;;;7.50;3.72;;;17.20;99.90;;;;;;4980517;28;20034;-79
2023/07/04 02:33:00;;;;;;;9.00;4.45;;;17.10;99.90;;;;;;4979402;28;20398;-79
2023/07/04 02:35:27;;;;;;;10.30;4.07;;;17.10;99.90;;;;;;4978573;28;20077;-77
2023/07/04 02:37:53;;;;;;;8.95;4.55;;;17.00;99.90;;;;;;4978163;28;20035;-79
2023/07/04 02:40:18;;;;;;;7.82;3.97;;;16.90;99.90;;;;;;4979467;28;20084;-79
2023/07/04 02:42:44;;;;;;;9.52;4.18;;;16.80;99.90;;;;;;4978462;28;20513;-79
2023/07/04 02:45:10;;;;;;;8.35;4.22;;;16.80;99.90;;;;;;4978244;28;20482;-79
2023/07/04 02:47:35;;;;;;;8.60;4.22;;;16.70;99.90;;;;;;4979999;28;20153;-80
2023/07/04 02:50:01;;;;;;;7.47;4.32;;;16.60;99.90;;;;;;4980591;28;20035;-79
2023/07/04 02:52:27;;;;;;;9.23;4.53;;;16.50;99.90;;;;;;4979630;28;20029;-80
2023/07/04 02:54:52;;;;;;;12.02;4.63;;;16.40;99.90;;;;;;4979423;28;20066;-80
2023/07/04 02:57:18;;;;;;;10.18;4.28;;;16.30;99.90;;;;;;4979974;28;20034;-79
2023/07/04 02:59:44;;;;;;;8.50;4.22;;;16.30;99.90;;;;;;4980773;28;20805;-79
2023/07/04 03:02:10;;;;;;;7.78;4.03;;;16.20;99.90;;;;;;4978885;28;20091;-79
2023/07/04 03:04:36;;;;;;;8.40;4.53;;;16.20;99.90;;;;;;4980436;28;20545;-79
2023/07/04 03:07:05;;;;;;;7.65;3.80;;;16.10;99.90;;;;;;4978033;28;20034;-80
2023/07/04 03:09:31;;;;;;;9.68;4.63;;;16.10;99.90;;;;;;4980140;28;20130;-79
2023/07/04 03:11:57;;;;;;;10.18;4.55;;;16.10;99.90;;;;;;4980191;28;20113;-80
2023/07/04 03:14:24;;;;;;;12.13;4.70;;;16.10;99.90;;;;;;4979820;28;20403;-79
2023/07/04 03:16:49;;;;;;;9.15;4.45;;;16.00;99.90;;;;;;4979152;28;20045;-80
2023/07/04 03:19:15;;;;;;;9.55;4.35;;;16.00;99.90;;;;;;4979245;28;20398;-79
2023/07/04 03:21:40;;;;;;;7.85;4.20;;;16.00;99.90;;;;;;4978177;28;20168;-79
2023/07/04 03:24:06;;;;;;;11.80;4.72;;;16.10;99.90;;;;;;4979837;28;20105;-80
2023/07/04 03:26:34;;;;;;;10.63;4.28;;;16.10;99.90;;;;;;4978283;28;20038;-80
2023/07/04 03:29:00;;;;;;;10.00;4.47;;;16.10;99.90;;;;;;4978626;28;20041;-79
2023/07/04 03:31:26;;;;;;;9.13;4.25;;;16.10;99.90;;;;;;4978475;28;20671;-79
2023/07/04 03:33:51;;;;;;;8.68;4.68;;;16.00;99.90;;;;;;4979406;28;20030;-79
2023/07/04 03:36:17;;;;;;;9.68;4.72;;;16.00;99.90;;;;;;4979523;28;20127;-79
2023/07/04 03:38:43;;;;;;;9.23;4.50;;;16.00;99.90;;;;;;4978529;28;20176;-79
2023/07/04 03:41:08;;;;;;;9.77;4.50;;;16.00;99.90;;;;;;4976907;28;20026;-80
2023/07/04 03:43:34;;;;;;;10.13;4.47;;;16.00;99.90;;;;;;4977323;28;20046;-80
2023/07/04 03:45:59;;;;;;;10.82;4.53;;;16.00;99.90;;;;;;4977285;28;20061;-79
2023/07/04 03:48:25;;;;;;;7.22;5.07;;;16.00;99.90;;;;;;4978631;28;20153;-80
2023/07/04 03:50:51;;;;;;;12.02;4.28;;;16.00;99.90;;;;;;4977815;28;20034;-79
2023/07/04 03:53:16;;;;;;;7.82;3.95;;;16.00;99.90;;;;;;4977672;28;20034;-79
2023/07/04 03:55:42;;;;;;;11.23;4.68;;;16.10;99.90;;;;;;4977183;28;21525;-80
2023/07/04 03:58:07;;;;;;;13.38;4.78;;;16.10;99.90;;;;;;4977766;28;20049;-79
2023/07/04 04:00:33;;;;;;;9.13;5.00;;;16.10;99.90;;;;;;4979950;28;20049;-79
2023/07/04 04:02:58;;;;;;;9.25;4.45;;;16.10;99.90;;;;;;4976479;28;20066;-78
2023/07/04 04:05:24;;;;;;;10.93;4.72;;;16.20;99.90;;;;;;4975973;28;20030;-78
2023/07/04 04:07:50;;;;;;;10.23;4.78;;;16.20;99.90;;;;;;4974657;28;20034;-78
2023/07/04 04:10:17;;;;;;;6.63;3.83;;;16.10;99.90;;;;;;4975368;28;20068;-78
2023/07/04 04:12:42;;;;;;;8.60;4.05;;;16.10;99.90;;;;;;4974509;28;20559;-79
2023/07/04 04:15:08;;;;;;;10.52;4.43;;;16.10;99.90;;;;;;4972231;28;20038;-78
2023/07/04 04:17:34;;;;;;;7.00;3.67;;;16.10;99.90;;;;;;4973517;28;21638;-78
2023/07/04 04:20:04;;;;;;;7.55;4.32;;;16.10;99.90;;;;;;4975336;28;20108;-80
2023/07/04 04:22:30;;;;;;;7.57;4.13;;;16.00;99.90;;;;;;4977571;28;20033;-80
2023/07/04 04:24:56;;;;;;;10.63;4.28;;;16.00;99.90;;;;;;4976884;28;20027;-78
2023/07/04 04:27:22;;;;;;;6.07;3.70;;;16.00;99.90;;;;;;4974360;28;20037;-79
2023/07/04 04:29:48;;;;;;;10.77;3.97;;;16.00;99.90;;;;;;4975952;28;20041;-79
2023/07/04 04:32:13;;;;;;;8.30;3.50;;;16.00;99.90;;;;;;4976990;28;20128;-80
2023/07/04 04:34:39;;;;;;;7.60;3.85;;;16.00;99.90;;;;;;4977521;28;20061;-80
2023/07/04 04:37:04;;;;;;;7.47;3.65;;;16.10;99.90;;;;;;4975526;28;20136;-80
2023/07/04 04:39:31;;;;;;;7.47;3.80;;;16.10;99.90;;;;;;4970459;28;20475;-79
2023/07/04 04:41:56;;;;;;;7.60;3.63;;;16.10;99.90;;;;;;4970859;28;20082;-80
2023/07/04 04:44:22;;;;;;;7.35;3.70;;;16.10;99.90;;;;;;4972094;28;20137;-80
2023/07/04 04:46:48;;;;;;;11.48;4.35;;;16.00;99.90;;;;;;4972588;28;20101;-80
2023/07/04 04:49:17;;;;;;;7.45;4.05;;;16.00;99.90;;;;;;4970775;28;20143;-80
2023/07/04 04:51:44;;;;;;;7.65;3.67;;;16.00;99.90;;;;;;4973328;28;20042;-80
2023/07/04 04:54:12;;;;;;;8.35;3.80;;;16.00;99.90;;;;;;4976537;28;20027;-85
2023/07/04 04:56:37;;;;;;;7.18;4.18;;;16.10;99.90;;;;;;4983191;28;20045;-84
2023/07/04 04:59:03;;;;;;;7.30;3.63;;;16.10;99.90;;;;;;4983280;28;20051;-84
2023/07/04 05:01:28;;;;;;;9.93;3.47;;;16.10;99.90;;;;;;4982347;28;20038;-83
2023/07/04 05:03:55;;;;;;;11.02;4.05;;;16.10;99.90;;;;;;4978316;28;20095;-83
2023/07/04 05:06:24;;;;;;;7.90;3.50;;;16.10;99.90;;;;;;4984186;28;20034;-83
2023/07/04 05:11:24;;;;;;;8.18;3.30;;;16.20;99.90;;;;;;5351524;22;20058;-82
2023/07/04 05:13:51;;;;;;;6.50;3.50;;;16.20;99.90;;;;;;4962931;28;20043;-82
2023/07/04 05:16:19;;;;;;;5.55;3.30;;;16.30;99.90;;;;;;4964260;28;20054;-82
2023/07/04 05:18:46;;;;;;;7.63;2.92;;;16.30;99.90;;;;;;4964230;28;20039;-83
2023/07/04 05:21:15;;;;;;;7.00;3.00;;;16.30;99.90;;;;;;4952150;28;20505;-82
2023/07/04 05:23:43;;;;;;;5.97;2.97;;;16.50;99.90;;;;;;4983388;23;20119;-86
2023/07/04 05:26:21;;;;;;;6.00;3.10;;;16.50;99.90;;;;;;4996065;28;20670;-86
2023/07/04 05:28:47;;;;;;;4.28;2.80;;;16.60;99.90;;;;;;4976622;28;20384;-86
2023/07/04 05:31:16;;;;;;;5.50;2.80;;;16.70;99.90;;;;;;4986368;28;20041;-87
2023/07/04 05:33:42;;;;;;;4.55;2.30;;;16.80;99.90;;;;;;4981684;28;20073;-85
2023/07/04 05:36:20;;;;;;;4.13;2.25;;;16.90;99.90;;;;;;4987640;28;20015;-86
2023/07/04 05:38:54;;;;;;;4.97;2.40;;;16.90;99.90;;;;;;4980172;28;20043;-86
2023/07/04 05:41:22;;;;;;;3.95;2.22;;;17.00;99.90;;;;;;4975679;28;20081;-85
2023/07/04 05:43:48;;;;;;;5.47;2.30;;;17.00;99.90;;;;;;4977362;28;20042;-85
2023/07/04 05:46:16;;;;;;;4.75;2.50;;;17.10;99.90;;;;;;4976889;28;20042;-86
2023/07/04 05:48:43;;;;;;;4.30;2.25;;;17.20;99.90;;;;;;4972768;28;20042;-85
2023/07/04 05:51:11;;;;;;;5.65;2.67;;;17.20;99.90;;;;;;4972326;28;20524;-85
2023/07/04 05:53:38;;;;;;;4.93;2.30;;;17.30;99.90;;;;;;4976029;28;20097;-85
2023/07/04 05:56:15;;;;;;;5.90;2.50;;;17.20;99.90;;;;;;4975238;28;20035;-85
2023/07/04 05:58:46;;;;;;;4.38;2.10;;;17.30;99.90;;;;;;4974691;28;21333;-85
2023/07/04 06:01:35;;;;;;;4.43;2.30;;;17.30;99.90;;;;;;4972870;28;20026;-85
2023/07/04 06:04:09;;;;;;;5.40;2.28;;;17.40;99.90;;;;;;4974540;28;20046;-85
2023/07/04 06:06:40;;;;;;;7.22;2.13;;;17.40;99.90;;;;;;4975766;28;20516;-85
2023/07/04 06:09:11;;;;;;;4.38;2.10;;;17.50;99.90;;;;;;4975580;28;20052;-85
2023/07/04 06:11:39;;;;;;;3.88;2.15;;;17.50;99.90;;;;;;4974486;28;20096;-86
2023/07/04 06:14:05;;;;;;;4.50;2.42;;;17.50;99.90;;;;;;4974045;28;20409;-87
2023/07/04 06:16:33;;;;;;;5.03;2.50;;;17.60;99.90;;;;;;4972531;28;20500;-87
2023/07/04 06:18:59;;;;;;;5.85;2.65;;;17.60;99.90;;;;;;4976339;28;20042;-87
2023/07/04 06:21:26;;;;;;;4.00;2.40;;;17.70;99.90;;;;;;4976522;28;21276;-87
2023/07/04 06:23:56;;;;;;;5.13;2.55;;;17.80;99.90;;;;;;4977850;28;20953;-87
2023/07/04 06:26:24;;;;;;;4.38;2.60;;;17.80;99.90;;;;;;4977665;28;20033;-86
2023/07/04 06:28:50;;;;;;;5.10;2.35;;;17.90;99.90;;;;;;4974262;28;20032;-86
2023/07/04 06:31:16;;;;;;;3.85;2.28;;;17.90;99.90;;;;;;4976181;28;20747;-86
2023/07/04 06:33:43;;;;;;;5.95;2.65;;;17.80;99.90;;;;;;4978852;28;20429;-86
2023/07/04 06:36:13;;;;;;;5.00;2.80;;;17.80;99.90;;;;;;4978882;28;20121;-87
2023/07/04 06:38:39;;;;;;;4.40;2.53;;;17.80;99.90;;;;;;4976584;28;20037;-86
2023/07/04 06:41:07;;;;;;;3.97;2.45;;;17.80;99.90;;;;;;4974996;28;20077;-86
2023/07/04 06:43:34;;;;;;;4.50;2.67;;;17.80;99.90;;;;;;4975931;28;20449;-87
2023/07/04 06:46:00;;;;;;;7.10;2.40;;;17.90;99.90;;;;;;4975687;28;21500;-86
2023/07/04 06:48:27;;;;;;;3.45;2.13;;;18.00;99.90;;;;;;4975000;28;21403;-87
2023/07/04 06:51:01;;;;;;;4.22;2.42;;;18.10;99.90;;;;;;4974994;28;20026;-87
2023/07/04 06:53:28;;;;;;;2.70;2.10;;;18.20;99.90;;;;;;4977382;28;20165;-87
2023/07/04 06:56:06;;;;;;;4.32;2.72;;;18.20;99.90;;;;;;4975268;28;20038;-86
2023/07/04 06:58:33;;;;;;;4.72;2.35;;;18.30;99.90;;;;;;4978076;28;20031;-85
2023/07/04 07:00:59;;;;;;;3.95;2.30;;;18.50;99.90;;;;;;4974799;28;20034;-87
2023/07/04 07:03:25;;;;;;;3.75;2.03;;;18.50;99.90;;;;;;4976567;28;20022;-87
2023/07/04 07:05:50;;;;;;;4.80;1.90;;;18.60;99.90;;;;;;4975112;28;20032;-85
2023/07/04 07:08:16;;;;;;;3.75;2.03;;;18.70;99.90;;;;;;4976031;28;20026;-86
2023/07/04 07:10:57;;;;;;;5.32;2.25;;;18.90;99.90;;;;;;4975687;28;20023;-85
2023/07/04 07:13:23;;;;;;;4.78;2.30;;;18.80;99.90;;;;;;4977228;28;20034;-85
2023/07/04 07:15:49;;;;;;;3.70;2.22;;;18.80;99.90;;;;;;4973042;28;20022;-84
2023/07/04 07:18:15;;;;;;;5.10;2.28;;;18.80;99.90;;;;;;4965001;28;20022;-86
2023/07/04 07:20:40;;;;;;;2.70;1.80;;;18.90;99.90;;;;;;4961761;28;20038;-86
2023/07/04 07:23:09;;;;;;;3.40;2.10;;;18.90;99.90;;;;;;4964262;28;20114;-85
2023/07/04 07:25:35;;;;;;;5.93;2.10;;;19.10;99.90;;;;;;4965930;28;21446;-86
2023/07/04 07:28:01;;;;;;;6.25;2.15;;;19.10;99.90;;;;;;4965170;28;20030;-87
2023/07/04 07:30:26;;;;;;;3.83;2.28;;;19.10;99.90;;;;;;4968962;28;20034;-85
2023/07/04 07:32:52;;;;;;;3.38;2.10;;;19.10;99.90;;;;;;4974737;28;20040;-86
2023/07/04 07:35:17;;;;;;;5.75;2.47;;;19.30;99.90;;;;;;4976274;28;20033;-85
2023/07/04 07:37:43;;;;;;;3.65;2.10;;;19.40;99.90;;;;;;4976782;28;20035;-84
2023/07/04 07:40:09;;;;;;;3.58;2.40;;;19.70;99.90;;;;;;4975253;28;20049;-85
2023/07/04 07:42:38;;;;;;;4.93;2.15;;;19.80;99.90;;;;;;4956930;28;20100;-84
2023/07/04 07:45:04;;;;;;;3.35;2.17;;;19.80;99.90;;;;;;4975905;28;20037;-84
2023/07/04 07:47:30;;;;;;;6.07;2.58;;;20.00;99.90;;;;;;4974825;28;20585;-84
2023/07/04 07:49:55;;;;;;;7.75;2.50;;;20.00;99.90;;;;;;4975234;28;20031;-84
2023/07/04 07:52:22;;;;;;;4.97;2.67;;;20.10;99.90;;;;;;4976218;28;20030;-85
2023/07/04 07:54:47;;;;;;;5.47;2.47;;;20.20;99.90;;;;;;4974701;28;20618;-86
2023/07/04 07:57:13;;;;;;;5.60;1.90;;;20.10;99.90;;;;;;4958289;28;20030;-85
2023/07/04 07:59:39;;;;;;;4.35;2.20;;;20.10;99.90;;;;;;4976013;28;20034;-84
2023/07/04 08:02:04;;;;;;;3.20;2.38;;;20.10;99.90;;;;;;4977240;28;20022;-84
2023/07/04 08:04:30;;;;;;;5.50;2.33;;;20.30;99.90;;;;;;4974872;28;20038;-84
2023/07/04 08:06:55;;;;;;;3.67;2.35;;;20.30;99.90;;;;;;4975302;28;20096;-85
2023/07/04 08:09:21;;;;;;;5.85;2.40;;;20.40;99.90;;;;;;4977173;28;20057;-85
2023/07/04 08:11:48;;;;;;;6.10;2.60;;;20.60;99.90;;;;;;4975607;28;20033;-84
2023/07/04 08:14:14;;;;;;;4.65;2.40;;;20.70;99.90;;;;;;4975736;28;20124;-84
2023/07/04 08:16:47;;;;;;;3.58;2.10;;;20.70;99.90;;;;;;4975150;28;20157;-83
2023/07/04 08:19:15;;;;;;;4.75;2.30;;;20.90;99.90;;;;;;4974208;28;20561;-84
2023/07/04 08:21:40;;;;;;;6.68;2.72;;;21.00;99.90;;;;;;4974604;28;20031;-85
2023/07/04 08:24:10;;;;;;;4.10;2.30;;;21.00;99.90;;;;;;4976033;28;20034;-84
2023/07/04 08:26:38;;;;;;;3.65;2.30;;;21.00;99.90;;;;;;4975735;28;20026;-85
2023/07/04 08:29:05;;;;;;;5.05;2.50;;;21.10;99.90;;;;;;4957582;28;20487;-84
2023/07/04 08:31:31;;;;;;;5.18;2.58;;;21.30;99.90;;;;;;4977249;28;20026;-85
2023/07/04 08:33:57;;;;;;;4.25;2.28;;;21.30;99.90;;;;;;4978690;28;20032;-84
2023/07/04 08:36:22;;;;;;;3.88;2.35;;;21.20;99.90;;;;;;4962342;28;20483;-84
2023/07/04 08:38:49;;;;;;;5.07;2.20;;;21.40;99.90;;;;;;4981698;28;20034;-84
2023/07/04 08:41:26;;;;;;;4.30;2.30;;;21.30;99.90;;;;;;4980767;28;20042;-85
2023/07/04 08:44:03;;;;;;;3.83;2.22;;;21.30;99.90;;;;;;4981745;28;20076;-84
2023/07/04 08:46:35;;;;;;;5.25;2.40;;;21.30;99.90;;;;;;4980448;28;20030;-84
2023/07/04 08:49:02;;;;;;;4.03;2.33;;;21.50;99.90;;;;;;4981059;28;20122;-84
2023/07/04 08:51:43;;;;;;;3.90;2.13;;;21.60;99.90;;;;;;4981196;28;20014;-85
2023/07/04 08:54:12;;;;;;;4.00;2.50;;;21.70;99.90;;;;;;4979835;28;20074;-84
2023/07/04 08:56:38;;;;;;;3.78;2.30;;;21.70;99.90;;;;;;4978715;28;20034;-84
2023/07/04 08:59:25;;;;;;;5.57;2.53;;;21.70;99.90;;;;;;4978150;28;20122;-84
2023/07/04 09:02:23;;;;;;;4.75;2.40;;;21.70;99.90;;;;;;4977799;28;20478;-84
2023/07/04 09:05:04;;;;;;;4.55;2.53;;;21.80;99.90;;;;;;4965826;28;20468;-84
2023/07/04 09:07:54;;;;;;;5.05;2.50;;;21.60;99.90;;;;;;4977929;28;20113;-83
2023/07/04 09:10:32;;;;;;;5.38;2.63;;;21.80;99.90;;;;;;4977444;28;20086;-84
2023/07/04 09:12:59;;;;;;;5.78;2.67;;;22.00;99.90;;;;;;4980070;28;20018;-85
2023/07/04 09:15:33;;;;;;;5.63;2.50;;;22.10;99.90;;;;;;4979357;28;20023;-85
2023/07/04 09:18:31;;;;;;;5.82;2.83;;;22.10;99.90;;;;;;4980119;28;20018;-84
2023/07/04 09:21:03;;;;;;;5.20;2.50;;;22.30;99.90;;;;;;4979229;28;20049;-85
2023/07/04 09:23:29;;;;;;;4.57;2.72;;;22.30;99.90;;;;;;4978526;28;20054;-84
2023/07/04 09:25:57;;;;;;;6.05;2.70;;;22.30;99.90;;;;;;4978216;28;20030;-85
2023/07/04 09:28:24;;;;;;;6.97;2.97;;;22.20;99.90;;;;;;4979233;28;20090;-84
2023/07/04 09:30:52;;;;;;;8.27;3.00;;;22.20;99.90;;;;;;4976975;28;20108;-84
2023/07/04 09:33:21;;;;;;;4.95;2.88;;;22.10;99.90;;;;;;4978753;28;20030;-84
2023/07/04 09:35:47;;;;;;;5.50;2.70;;;22.00;99.90;;;;;;4958479;28;20116;-84
2023/07/04 09:38:13;;;;;;;7.38;3.20;;;21.80;99.90;;;;;;4973777;28;20046;-83
2023/07/04 09:40:52;;;;;;;7.03;3.55;;;21.90;99.90;;;;;;4969568;28;20042;-84
2023/07/04 09:46:29;;;;;;;6.57;3.28;;;21.70;99.90;;;;;;4979216;28;20128;-83
2023/07/04 09:49:15;;;;;;;7.85;3.25;;;21.60;99.90;;;;;;4991469;28;20176;-83
2023/07/04 09:51:41;;;;;;;6.45;3.67;;;21.60;99.90;;;;;;4992422;28;20061;-84
2023/07/04 09:54:18;;;;;;;6.25;3.65;;;21.80;99.90;;;;;;4991865;28;20052;-84
2023/07/04 09:56:44;;;;;;;7.38;3.47;;;22.10;99.90;;;;;;4989092;28;20040;-84
2023/07/04 09:59:28;;;;;;;5.90;3.40;;;22.20;99.90;;;;;;4989568;28;20042;-84
2023/07/04 10:01:59;;;;;;;7.80;3.10;;;22.20;99.90;;;;;;4994018;28;20375;-84
2023/07/04 10:04:35;;;;;;;7.25;3.33;;;22.20;99.90;;;;;;4996544;28;21374;-84
2023/07/04 10:07:04;;;;;;;7.72;3.60;;;22.20;99.90;;;;;;4995586;28;20034;-78
2023/07/04 10:09:30;;;;;;;6.60;3.10;;;22.70;99.90;;;;;;4996043;28;20033;-75
2023/07/04 10:12:30;;;;;;;6.88;3.78;;;23.10;99.90;;;;;;4994769;28;20136;-75
2023/07/04 10:14:58;;;;;;;9.20;3.95;;;23.70;99.90;;;;;;4965377;28;20041;-75
2023/07/04 10:17:35;;;;;;;7.43;3.72;;;24.20;99.90;;;;;;4995588;28;20029;-75
2023/07/04 10:20:13;;;;;;;10.25;3.75;;;24.50;99.90;;;;;;4996457;28;20497;-75
2023/07/04 10:22:43;;;;;;;9.82;3.22;;;24.70;99.90;;;;;;4995657;28;20041;-74
2023/07/04 10:25:17;;;;;;;6.57;3.17;;;24.80;99.90;;;;;;4993163;28;20038;-74
2023/07/04 10:27:47;;;;;;;4.38;2.83;;;24.90;99.90;;;;;;4996602;28;20402;-75
2023/07/04 10:30:25;;;;;;;5.80;3.08;;;24.90;99.90;;;;;;4994169;28;20104;-75
2023/07/04 10:32:58;;;;;;;7.07;3.38;;;24.90;99.90;;;;;;4989982;28;20562;-76
2023/07/04 10:35:29;;;;;;;8.95;3.45;;;25.30;99.90;;;;;;4993338;28;20077;-74
2023/07/04 10:38:01;;;;;;;7.72;3.17;;;25.60;99.90;;;;;;4995972;28;20075;-75
2023/07/04 10:40:28;;;;;;;7.20;3.47;;;25.80;99.90;;;;;;4993984;28;20575;-75
2023/07/04 10:42:57;;;;;;;6.85;3.28;;;26.10;99.90;;;;;;4991867;28;20485;-75
2023/07/04 10:45:26;;;;;;;5.60;3.13;;;26.30;99.90;;;;;;4994113;28;20034;-74
2023/07/04 10:47:54;;;;;;;10.77;3.17;;;26.70;99.90;;;;;;4994862;28;20026;-74
2023/07/04 10:50:32;;;;;;;8.48;3.45;;;27.00;99.90;;;;;;4994857;28;20030;-74
2023/07/04 10:52:57;;;;;;;6.88;2.92;;;27.20;99.90;;;;;;4996970;28;20036;-74
2023/07/04 10:55:32;;;;;;;7.55;3.33;;;26.80;99.90;;;;;;4994686;28;20025;-75
2023/07/04 10:58:05;;;;;;;5.85;2.85;;;26.50;99.90;;;;;;4995721;28;20038;-81
2023/07/04 11:00:30;;;;;;;7.43;3.22;;;26.00;99.90;;;;;;4994628;28;20141;-74
2023/07/04 11:03:03;;;;;;;4.97;3.40;;;25.80;99.90;;;;;;4993356;28;20379;-75
2023/07/04 11:05:40;;;;;;;7.78;3.40;;;25.70;99.90;;;;;;4991778;28;20038;-74
2023/07/04 11:08:08;;;;;;;6.60;3.25;;;25.50;99.90;;;;;;4995824;28;20033;-75
2023/07/04 11:10:40;;;;;;;6.88;3.38;;;25.50;99.90;;;;;;4994140;28;20017;-74
2023/07/04 11:13:07;;;;;;;7.47;3.05;;;25.50;99.90;;;;;;4993291;28;20056;-75
2023/07/04 11:15:38;;;;;;;7.45;3.33;;;25.20;99.90;;;;;;4993633;28;20017;-74
2023/07/04 11:18:05;;;;;;;8.07;3.08;;;25.10;99.90;;;;;;4995801;28;20026;-74
2023/07/04 11:20:40;;;;;;;4.90;2.70;;;25.00;99.90;;;;;;4977412;28;20030;-74
2023/07/04 11:23:14;;;;;;;4.55;2.60;;;24.90;99.90;;;;;;4995417;28;20125;-75
2023/07/04 11:25:46;;;;;;;7.13;3.20;;;25.20;99.90;;;;;;4993530;28;20776;-76
2023/07/04 11:28:20;;;;;;;7.00;3.15;;;25.40;99.90;;;;;;4993964;28;20087;-76
2023/07/04 11:30:48;;;;;;;5.93;2.85;;;25.50;99.90;;;;;;4994393;28;20033;-77
2023/07/04 11:33:40;;;;;;;6.63;3.15;;;25.60;99.90;;;;;;4996023;28;20500;-76
2023/07/04 11:36:23;;;;;;;7.28;3.28;;;25.80;99.90;;;;;;4994037;28;20025;-76
2023/07/04 11:39:22;;;;;;;6.45;3.20;;;26.20;99.90;;;;;;4995491;28;20041;-76
2023/07/04 11:41:48;;;;;;;7.03;3.10;;;26.50;99.90;;;;;;4983383;28;20730;-77
2023/07/04 11:44:23;;;;;;;6.88;3.30;;;26.90;99.90;;;;;;4994348;28;20045;-79
2023/07/04 11:47:09;;;;;;;5.05;2.70;;;27.00;99.90;;;;;;4998878;28;20030;-82
2023/07/04 11:49:35;;;;;;;7.03;3.10;;;27.00;99.90;;;;;;4996951;28;20082;-82
2023/07/04 11:52:16;;;;;;;6.40;3.53;;;26.90;99.90;;;;;;4995769;28;20041;-82
2023/07/04 11:54:43;;;;;;;9.98;3.40;;;26.70;99.90;;;;;;4995503;28;20029;-82
2023/07/04 11:57:09;;;;;;;5.65;2.95;;;26.40;99.90;;;;;;4997141;28;20026;-82
2023/07/04 11:59:43;;;;;;;5.68;2.88;;;26.10;99.90;;;;;;4996844;28;20046;-83
2023/07/04 12:02:14;;;;;;;6.93;3.03;;;26.00;99.90;;;;;;4999876;28;20114;-82
2023/07/04 12:04:39;;;;;;;9.00;3.13;;;25.90;99.90;;;;;;4998652;28;20104;-80
2023/07/04 12:07:34;;;;;;;7.80;3.30;;;25.80;99.90;;;;;;4998507;28;20101;-80
2023/07/04 12:10:19;;;;;;;6.45;3.03;;;25.40;99.90;;;;;;4988964;28;20048;-80
2023/07/04 12:12:46;;;;;;;7.95;3.35;;;25.20;99.90;;;;;;4998935;28;20053;-80
2023/07/04 12:15:19;;;;;;;4.88;2.78;;;25.50;99.90;;;;;;4997667;28;20037;-80
2023/07/04 12:17:46;;;;;;;8.38;2.95;;;25.90;99.90;;;;;;4999811;28;20145;-80
2023/07/04 12:20:17;;;;;;;6.38;2.80;;;26.70;99.90;;;;;;4999093;28;20700;-80
2023/07/04 12:22:53;;;;;;;7.03;2.22;;;27.00;99.90;;;;;;4998639;28;20037;-80
2023/07/04 12:25:27;;;;;;;3.60;2.40;;;27.10;99.90;;;;;;4997878;28;20026;-80
2023/07/04 12:27:56;;;;;;;6.55;2.60;;;27.00;99.90;;;;;;4999502;28;20025;-81
2023/07/04 12:30:22;;;;;;;6.03;2.30;;;27.50;99.90;;;;;;4980176;28;20120;-81
2023/07/04 12:32:52;;;;;;;3.13;1.90;;;27.90;99.90;;;;;;4998602;28;20164;-81
2023/07/04 12:35:20;;;;;;;6.07;2.10;;;28.20;99.90;;;;;;4998302;28;20053;-80
2023/07/04 12:37:54;;;;;;;3.53;1.80;;;28.50;99.90;;;;;;4997167;28;20512;-82
2023/07/04 12:40:24;;;;;;;3.15;2.00;;;28.90;99.90;;;;;;4997402;28;20187;-81
2023/07/04 12:42:50;;;;;;;3.47;2.13;;;29.10;99.90;;;;;;4997486;28;20125;-82
2023/07/04 12:45:23;;;;;;;3.88;1.90;;;28.70;99.90;;;;;;4996705;28;20147;-81
2023/07/04 12:47:51;;;;;;;3.95;2.13;;;28.30;99.90;;;;;;4999247;28;20038;-81
2023/07/04 12:50:17;;;;;;;6.75;2.70;;;28.50;99.90;;;;;;4997945;28;20161;-83
2023/07/04 12:52:45;;;;;;;3.97;2.30;;;28.60;99.90;;;;;;4997082;28;20842;-81
2023/07/04 12:55:33;;;;;;;4.57;2.40;;;28.80;99.90;;;;;;4996182;28;20032;-81
2023/07/04 12:57:59;;;;;;;7.25;2.55;;;29.30;99.90;;;;;;4998539;28;20497;-82
2023/07/04 13:00:51;;;;;;;5.45;2.25;;;29.50;99.90;;;;;;4996795;28;20046;-81
2023/07/04 13:03:18;;;;;;;2.80;1.88;;;29.30;99.90;;;;;;4992261;28;21454;-78